PWSweather.com
Personal Weather Stations
Station Observations

AwhituWaiuku, CA 268400

Lat: -37.058, Lon: -174.6346

Elevation: 250

Station Type: Personal

http://www.weather-display.com/windy/gb/grahamsbeach.htm

High Low Average
Temperature 67.4°F19.7°C 52.1°F11.2°C 58.7°F14.8°C
Dew Point 57.1°F13.9°C 50.2°F10.1°C 53.3°F11.8°C
Winds 12.7 mph 20.4 kmh Calm Calm 6.0 mph E9.7 kmh E
Wind Gusts 16.1 mph25.9 kmh -- 9.0 mph14.5 kmh
Humidity 93% 61% 83%
Pressure 30.33 in1027.1 mb 30.20 in1022.7 mb -
Precipitation 0.00 in0.0 mm - -
Hour Temp Dew Point Humidity Winds Wind Gusts Pressure Precip Precip Rate Daily Precip Total
12:00 AM 54.5°F12.5°C 51.4°F10.8°C 89% 4.6 mph E7.4 kmh E 6.9 mph11.1 kmh 30.33 in1027.1 mb - 0.00 in0.0 mm 0.00 in0.0 mm
12:30 AM 54.5°F12.5°C 51.6°F10.9°C 90% 6.9 mph E11.1 kmh E 8.1 mph13.0 kmh 30.33 in1027.1 mb - 0.00 in0.0 mm 0.00 in0.0 mm
01:00 AM 54.7°F12.6°C 51.8°F11.0°C 90% 6.9 mph E11.1 kmh E 8.1 mph13.0 kmh 30.33 in1027.1 mb - 0.00 in0.0 mm 0.00 in0.0 mm
01:30 AM 54.0°F12.2°C 51.5°F10.8°C 91% 8.1 mph E13.0 kmh E 8.1 mph13.0 kmh 30.32 in1026.8 mb - 0.00 in0.0 mm 0.00 in0.0 mm
02:00 AM 53.8°F12.1°C 51.2°F10.7°C 91% 4.6 mph E7.4 kmh E 6.9 mph11.1 kmh 30.32 in1026.8 mb - 0.00 in0.0 mm 0.00 in0.0 mm
02:30 AM 53.9°F12.2°C 51.3°F10.7°C 91% 6.9 mph E11.1 kmh E 8.1 mph13.0 kmh 30.31 in1026.4 mb - 0.00 in0.0 mm 0.00 in0.0 mm
03:00 AM 53.6°F12.0°C 51.3°F10.7°C 92% 6.9 mph E11.1 kmh E 9.2 mph14.8 kmh 30.31 in1026.4 mb - 0.00 in0.0 mm 0.00 in0.0 mm
03:30 AM 54.2°F12.3°C 51.6°F10.9°C 91% 8.1 mph E13.0 kmh E 11.5 mph18.5 kmh 30.30 in1026.1 mb - 0.00 in0.0 mm 0.00 in0.0 mm
04:00 AM 55.5°F13.1°C 51.7°F10.9°C 87% 10.4 mph E16.7 kmh E 11.5 mph18.5 kmh 30.29 in1025.7 mb - 0.00 in0.0 mm 0.00 in0.0 mm
04:30 AM 55.5°F13.1°C 51.7°F10.9°C 87% 10.4 mph E16.7 kmh E 13.8 mph22.2 kmh 30.29 in1025.7 mb - 0.00 in0.0 mm 0.00 in0.0 mm
05:00 AM 54.4°F12.4°C 51.5°F10.8°C 90% 8.1 mph E13.0 kmh E 10.4 mph16.7 kmh 30.29 in1025.7 mb - 0.00 in0.0 mm 0.00 in0.0 mm
05:30 AM 54.2°F12.3°C 51.3°F10.7°C 90% 8.1 mph E13.0 kmh E 10.4 mph16.7 kmh 30.29 in1025.7 mb - 0.00 in0.0 mm 0.00 in0.0 mm
06:00 AM 52.7°F11.5°C 50.5°F10.3°C 92% 4.6 mph E7.4 kmh E 6.9 mph11.1 kmh 30.29 in1025.7 mb - 0.00 in0.0 mm 0.00 in0.0 mm
06:30 AM 52.1°F11.2°C 50.2°F10.1°C 93% 4.6 mph E7.4 kmh E 4.6 mph7.4 kmh 30.30 in1026.1 mb - 0.00 in0.0 mm 0.00 in0.0 mm
07:00 AM 52.5°F11.4°C 50.5°F10.3°C 93% 2.3 mph E3.7 kmh E 3.5 mph5.6 kmh 30.31 in1026.4 mb - 0.00 in0.0 mm 0.00 in0.0 mm
07:30 AM 52.6°F11.4°C 50.4°F10.2°C 92% 3.5 mph E5.6 kmh E 3.5 mph5.6 kmh 30.32 in1026.8 mb - 0.00 in0.0 mm 0.00 in0.0 mm
08:00 AM 54.1°F12.3°C 51.2°F10.7°C 90% 2.3 mph ESE3.7 kmh ESE 3.5 mph5.6 kmh 30.32 in1026.8 mb - 0.00 in0.0 mm 0.00 in0.0 mm
08:30 AM 56.3°F13.5°C 53.1°F11.7°C 89% 3.5 mph E5.6 kmh E 3.5 mph5.6 kmh 30.32 in1026.8 mb - 0.00 in0.0 mm 0.00 in0.0 mm
09:00 AM 57.1°F13.9°C 53.0°F11.7°C 86% 11.5 mph E18.5 kmh E 13.8 mph22.2 kmh 30.32 in1026.8 mb - 0.00 in0.0 mm 0.00 in0.0 mm
09:30 AM 58.0°F14.4°C 54.2°F12.3°C 87% 11.5 mph E18.5 kmh E 15.0 mph24.1 kmh 30.31 in1026.4 mb - 0.00 in0.0 mm 0.00 in0.0 mm
10:00 AM 60.0°F15.6°C 55.5°F13.1°C 85% 12.7 mph ESE20.4 kmh ESE 16.1 mph25.9 kmh 30.30 in1026.1 mb - 0.00 in0.0 mm 0.00 in0.0 mm
10:30 AM 61.7°F16.5°C 56.2°F13.4°C 82% 9.2 mph E14.8 kmh E 11.5 mph18.5 kmh 30.30 in1026.1 mb - 0.00 in0.0 mm 0.00 in0.0 mm
11:00 AM 63.7°F17.6°C 57.0°F13.9°C 79% 6.9 mph ESE11.1 kmh ESE 11.5 mph18.5 kmh 30.29 in1025.7 mb - 0.00 in0.0 mm 0.00 in0.0 mm
11:30 AM 63.8°F17.7°C 56.8°F13.8°C 78% 8.1 mph E13.0 kmh E 11.5 mph18.5 kmh 30.28 in1025.4 mb - 0.00 in0.0 mm 0.00 in0.0 mm
12:00 PM 64.1°F17.8°C 57.1°F13.9°C 78% 6.9 mph ESE11.1 kmh ESE 9.2 mph14.8 kmh 30.27 in1025.1 mb - 0.00 in0.0 mm 0.00 in0.0 mm
12:30 PM 66.3°F19.1°C 55.8°F13.2°C 69% 6.9 mph E11.1 kmh E 9.2 mph14.8 kmh 30.26 in1024.7 mb - 0.00 in0.0 mm 0.00 in0.0 mm
01:00 PM 67.1°F19.5°C 55.8°F13.2°C 67% 5.8 mph SE9.3 kmh SE 10.4 mph16.7 kmh 30.25 in1024.4 mb - 0.00 in0.0 mm 0.00 in0.0 mm
01:30 PM 66.2°F19.0°C 55.7°F13.2°C 69% 4.6 mph E7.4 kmh E 9.2 mph14.8 kmh 30.23 in1023.7 mb - 0.00 in0.0 mm 0.00 in0.0 mm
02:00 PM 65.8°F18.8°C 55.7°F13.2°C 70% 4.6 mph NNE7.4 kmh NNE 15.0 mph24.1 kmh 30.22 in1023.4 mb - 0.00 in0.0 mm 0.00 in0.0 mm
02:30 PM 66.8°F19.3°C 55.5°F13.1°C 67% 6.9 mph NE11.1 kmh NE 6.9 mph11.1 kmh 30.22 in1023.4 mb - 0.00 in0.0 mm 0.00 in0.0 mm
03:00 PM 67.4°F19.7°C 53.4°F11.9°C 61% 6.9 mph NE11.1 kmh NE 6.9 mph11.1 kmh 30.21 in1023.0 mb - 0.00 in0.0 mm 0.00 in0.0 mm
03:30 PM 67.1°F19.5°C 54.1°F12.3°C 63% 5.8 mph E9.3 kmh E 10.4 mph16.7 kmh 30.21 in1023.0 mb - 0.00 in0.0 mm 0.00 in0.0 mm
04:00 PM 64.4°F18.0°C 54.4°F12.4°C 70% 4.6 mph ENE7.4 kmh ENE 11.5 mph18.5 kmh 30.21 in1023.0 mb - 0.00 in0.0 mm 0.00 in0.0 mm
04:30 PM 63.5°F17.5°C 55.8°F13.2°C 76% 3.5 mph ESE5.6 kmh ESE 9.2 mph14.8 kmh 30.21 in1023.0 mb - 0.00 in0.0 mm 0.00 in0.0 mm
05:00 PM 62.2°F16.8°C 54.9°F12.7°C 77% 2.3 mph ENE3.7 kmh ENE 3.5 mph5.6 kmh 30.21 in1023.0 mb - 0.00 in0.0 mm 0.00 in0.0 mm
05:30 PM 61.1°F16.2°C 54.5°F12.5°C 79% 4.6 mph NE7.4 kmh NE 9.2 mph14.8 kmh 30.21 in1023.0 mb - 0.00 in0.0 mm 0.00 in0.0 mm
06:00 PM 60.9°F16.1°C 54.7°F12.6°C 80% 5.8 mph N9.3 kmh N 11.5 mph18.5 kmh 30.21 in1023.0 mb - 0.00 in0.0 mm 0.00 in0.0 mm
06:30 PM 60.3°F15.7°C 54.8°F12.7°C 82% 3.5 mph ENE5.6 kmh ENE 6.9 mph11.1 kmh 30.21 in1023.0 mb - 0.00 in0.0 mm 0.00 in0.0 mm
07:00 PM 59.8°F15.4°C 54.6°F12.6°C 83% 4.6 mph E7.4 kmh E 6.9 mph11.1 kmh 30.21 in1023.0 mb - 0.00 in0.0 mm 0.00 in0.0 mm
07:30 PM 59.9°F15.5°C 54.1°F12.3°C 81% 8.1 mph ESE13.0 kmh ESE 9.2 mph14.8 kmh 30.21 in1023.0 mb - 0.00 in0.0 mm 0.00 in0.0 mm
08:00 PM 59.6°F15.3°C 53.7°F12.1°C 81% 9.2 mph E14.8 kmh E 11.5 mph18.5 kmh 30.20 in1022.7 mb - 0.00 in0.0 mm 0.00 in0.0 mm
08:30 PM 58.2°F14.6°C 53.4°F11.9°C 84% 5.8 mph E9.3 kmh E 8.1 mph13.0 kmh 30.21 in1023.0 mb - 0.00 in0.0 mm 0.00 in0.0 mm
09:00 PM 57.8°F14.3°C 52.7°F11.5°C 83% 5.8 mph E9.3 kmh E 9.2 mph14.8 kmh 30.21 in1023.0 mb - 0.00 in0.0 mm 0.00 in0.0 mm
09:30 PM 57.0°F13.9°C 51.9°F11.1°C 83% 8.1 mph E13.0 kmh E 9.2 mph14.8 kmh 30.22 in1023.4 mb - 0.00 in0.0 mm 0.00 in0.0 mm
10:00 PM 56.2°F13.4°C 52.0°F11.1°C 86% 4.6 mph ESE7.4 kmh ESE 5.8 mph9.3 kmh 30.22 in1023.4 mb - 0.00 in0.0 mm 0.00 in0.0 mm
10:30 PM 56.7°F13.7°C 51.9°F11.1°C 84% 4.6 mph E7.4 kmh E 8.1 mph13.0 kmh 30.22 in1023.4 mb - 0.00 in0.0 mm 0.00 in0.0 mm
11:00 PM 56.6°F13.7°C 51.8°F11.0°C 84% 2.3 mph SW3.7 kmh SW 3.5 mph5.6 kmh 30.22 in1023.4 mb - 0.00 in0.0 mm 0.00 in0.0 mm
11:30 PM 56.4°F13.6°C 51.9°F11.1°C 85% Calm Calm -- 30.22 in1023.4 mb - 0.00 in0.0 mm 0.00 in0.0 mm